RKJK/KUV METAR and TAF weather

Enter ICAO airport designator
Station Type Date Time Source
RKJK METAR 2019/02/21 15:56 UTC NOAA

RKJK 211556Z 05004KT 5SM BR BKN200 00/00 A3025 RMK AO2A SLPNO ALSTG ESTMD T00040003 PWINO $


Station Type Date Time Source
RKJK Decoded METAR 2019/02/21 15:56 UTC NOAA

Kunsan Ab, Korea, South (RKJK) 35-55N 126-37E 10M
Feb 21, 2019 - 10:56 AM EST / 2019.02.21 1556 UTC
Wind: from the NE (050 degrees) at 5 MPH (4 KT):0
Visibility: 5 mile(s):0
Sky conditions: mostly cloudy
Weather: mist
Temperature: 32.7 F (0.4 C)
Windchill: 28 F (-2 C):1
Dew Point: 32.5 F (0.3 C)
Relative Humidity: 99%
Pressure (altimeter): 30.25 in. Hg (1024 hPa)
ob: RKJK 211556Z 05004KT 5SM BR BKN200 00/00 A3025 RMK AO2A SLPNO ALSTG ESTMD T00040003 PWINO
cycle: 16

Station Type Date Time Source
RKJK TAF 2019/02/21 15:15 UTC NOAA

TAF TAF RKJK 211500Z 2115/2221 VRB06KT 4800 BR BKN200 QNH3025INS
BECMG 2119/2120 10004KT 3200 BR BKN200 QNH3022INS
TEMPO 2120/2123 1200 BR BKN200
BECMG 2200/2202 VRB06KT 4800 BR BKN200 QNH3016INS
BECMG 2202/2203 32006KT 8000 HZ BKN200 QNH3013INS
BECMG 2214/2215 VRB06KT 4800 HZ BKN200 QNH3030INS TX07/2204Z TNM02/2121Z


Example: see airport list